createdAt,value
2022-08-09T00:00:25.212Z,1.80
2022-08-09T00:01:25.265Z,2.00
2022-08-09T00:02:25.820Z,2.10
2022-08-09T00:04:06.003Z,2.10
2022-08-09T00:04:34.546Z,2.20
2022-08-09T00:06:19.116Z,2.00
2022-08-09T00:06:27.845Z,2.10
2022-08-09T00:07:25.110Z,2.20
2022-08-09T00:08:32.340Z,2.30
2022-08-09T00:09:25.087Z,2.10
2022-08-09T00:10:25.066Z,2.10
2022-08-09T00:11:55.042Z,1.90
2022-08-09T00:12:25.045Z,2.00
2022-08-09T00:13:25.053Z,2.00
2022-08-09T00:14:36.488Z,2.00
2022-08-09T00:15:26.799Z,1.90
2022-08-09T00:16:25.843Z,2.20
2022-08-09T00:18:05.733Z,2.10
2022-08-09T00:18:24.977Z,2.00
2022-08-09T00:19:24.956Z,2.20
2022-08-09T00:20:24.941Z,2.10
2022-08-09T00:21:24.922Z,2.20
2022-08-09T00:22:24.907Z,2.00
2022-08-09T00:23:57.425Z,2.20
2022-08-09T00:24:24.907Z,2.30
2022-08-09T00:25:32.921Z,2.20
2022-08-09T00:26:32.095Z,2.10
2022-08-09T00:27:24.854Z,2.00
2022-08-09T00:28:26.505Z,2.00
2022-08-09T00:30:10.196Z,2.10
2022-08-09T00:30:29.481Z,2.30
2022-08-09T00:31:57.622Z,2.10
2022-08-09T00:32:26.976Z,2.00
2022-08-09T00:33:32.474Z,2.30
2022-08-09T00:34:24.773Z,2.10
2022-08-09T00:35:24.734Z,2.10
2022-08-09T00:36:29.593Z,2.10
2022-08-09T00:37:24.737Z,2.00
2022-08-09T00:38:24.718Z,2.20
2022-08-09T00:40:13.363Z,2.20
2022-08-09T00:40:30.918Z,1.90
2022-08-09T00:44:13.140Z,2.40
2022-08-09T00:44:30.748Z,2.00
2022-08-09T00:44:37.491Z,2.10
2022-08-09T00:45:36.679Z,2.20
2022-08-09T00:46:56.285Z,2.20
2022-08-09T00:47:39.860Z,2.10
2022-08-09T00:48:36.630Z,2.00
2022-08-09T00:49:38.470Z,2.00
2022-08-09T00:50:37.932Z,2.00
2022-08-09T00:51:42.682Z,2.10
2022-08-09T00:52:36.962Z,2.30
2022-08-09T00:53:36.569Z,2.20
2022-08-09T00:54:36.675Z,2.10
2022-08-09T00:56:04.060Z,2.10
2022-08-09T00:56:36.530Z,2.10
2022-08-09T00:57:36.536Z,2.30
2022-08-09T00:58:36.538Z,2.00
2022-08-09T00:59:41.320Z,2.20
2022-08-09T01:00:36.476Z,2.20
2022-08-09T01:01:44.837Z,2.30
2022-08-09T01:02:36.469Z,2.20
2022-08-09T01:03:40.822Z,1.90
2022-08-09T01:04:36.445Z,2.30
2022-08-09T01:05:53.500Z,2.30
2022-08-09T01:06:53.899Z,2.30
2022-08-09T01:07:37.899Z,2.30
2022-08-09T01:08:36.875Z,2.20
2022-08-09T01:09:37.057Z,2.40
2022-08-09T01:10:36.416Z,2.30
2022-08-09T01:11:36.332Z,2.40
2022-08-09T01:12:36.316Z,2.30
2022-08-09T01:13:41.743Z,2.50
2022-08-09T01:14:36.291Z,2.00
2022-08-09T01:15:40.784Z,2.10
2022-08-09T01:16:36.293Z,2.20
2022-08-09T01:17:36.254Z,2.20
2022-08-09T01:18:36.246Z,2.30
2022-08-09T01:19:39.882Z,2.20
2022-08-09T01:20:36.217Z,2.40
2022-08-09T01:21:41.149Z,2.10
2022-08-09T01:22:36.193Z,2.40
2022-08-09T01:24:02.838Z,2.10
2022-08-09T01:24:36.166Z,2.20
2022-08-09T01:25:37.409Z,2.30
2022-08-09T01:26:36.133Z,2.40
2022-08-09T01:27:36.159Z,2.20
2022-08-09T01:28:36.106Z,2.40
2022-08-09T01:29:40.990Z,2.10
2022-08-09T01:30:51.488Z,2.10
2022-08-09T01:32:31.431Z,2.50
2022-08-09T01:32:50.066Z,2.50
2022-08-09T01:33:36.040Z,2.30
2022-08-09T01:34:36.045Z,2.20
2022-08-09T01:35:38.984Z,2.50
2022-08-09T01:36:36.007Z,2.40
2022-08-09T01:38:06.376Z,2.10
2022-08-09T01:38:35.982Z,2.30
2022-08-09T01:39:36.068Z,2.40
2022-08-09T01:40:35.955Z,2.30
2022-08-09T01:41:35.953Z,2.10
2022-08-09T01:42:35.915Z,2.50
2022-08-09T01:43:47.943Z,2.20
2022-08-09T01:44:35.901Z,2.40
2022-08-09T01:45:35.883Z,2.30
2022-08-09T01:46:35.883Z,2.20
2022-08-09T01:47:44.697Z,2.10
2022-08-09T01:48:35.840Z,2.10
2022-08-09T01:49:38.995Z,2.10
2022-08-09T01:50:37.292Z,2.30
2022-08-09T01:51:35.832Z,2.50
2022-08-09T01:52:35.797Z,2.20
2022-08-09T01:53:41.435Z,2.20
2022-08-09T01:54:35.775Z,2.10
2022-08-09T01:55:35.749Z,2.70
2022-08-09T01:56:35.724Z,2.30
2022-08-09T01:57:40.081Z,2.40
2022-08-09T01:58:35.708Z,2.60
2022-08-09T01:59:40.914Z,2.20
2022-08-09T02:00:36.333Z,1.90
2022-08-09T02:01:59.442Z,2.10
2022-08-09T02:02:35.965Z,2.30
2022-08-09T02:03:35.784Z,2.70
2022-08-09T02:04:35.622Z,2.40
2022-08-09T02:05:53.465Z,2.40
2022-08-09T02:06:35.599Z,2.10
2022-08-09T02:08:35.527Z,2.40
2022-08-09T02:08:58.744Z,2.20
2022-08-09T02:09:41.860Z,2.40
2022-08-09T02:10:35.551Z,2.20
2022-08-09T02:11:42.548Z,2.30
2022-08-09T02:12:35.850Z,2.20
2022-08-09T02:13:40.358Z,2.30
2022-08-09T02:14:35.485Z,2.30
2022-08-09T02:15:36.197Z,2.30
2022-08-09T02:16:53.297Z,2.40
2022-08-09T02:18:00.004Z,2.20
2022-08-09T02:18:35.443Z,2.20
2022-08-09T02:19:39.023Z,2.30
2022-08-09T02:20:35.407Z,2.50
2022-08-09T02:21:35.428Z,2.50
2022-08-09T02:22:35.923Z,2.40
2022-08-09T02:23:42.994Z,2.20
2022-08-09T02:24:35.354Z,2.40
2022-08-09T02:25:42.449Z,2.50
2022-08-09T02:26:35.338Z,2.50
2022-08-09T02:27:57.754Z,2.50
2022-08-09T02:28:35.309Z,2.30
2022-08-09T02:29:35.296Z,2.20
2022-08-09T02:30:35.288Z,2.40
2022-08-09T02:31:36.223Z,2.20
2022-08-09T02:32:35.254Z,2.30
2022-08-09T02:33:58.460Z,2.30
2022-08-09T02:34:41.245Z,2.50
2022-08-09T02:36:01.356Z,2.30
2022-08-09T02:36:35.203Z,2.40
2022-08-09T02:37:36.704Z,2.50
2022-08-09T02:38:35.362Z,2.60
2022-08-09T02:39:42.038Z,2.40
2022-08-09T02:40:35.194Z,2.30
2022-08-09T02:41:35.129Z,2.20
2022-08-09T02:42:35.287Z,2.20
2022-08-09T02:43:42.447Z,2.60
2022-08-09T02:44:35.131Z,2.40
2022-08-09T02:45:35.080Z,2.40
2022-08-09T02:46:35.062Z,2.40
2022-08-09T02:47:58.080Z,2.30
2022-08-09T02:48:35.043Z,2.40
2022-08-09T02:49:39.030Z,2.50
2022-08-09T02:50:35.041Z,2.60
2022-08-09T02:51:39.952Z,2.40
2022-08-09T02:52:35.333Z,2.70
2022-08-09T02:53:34.977Z,2.70
2022-08-09T02:54:34.992Z,2.50
2022-08-09T02:55:57.730Z,2.40
2022-08-09T02:56:34.944Z,2.50
2022-08-09T02:57:40.531Z,2.60
2022-08-09T02:58:36.291Z,2.40
2022-08-09T02:59:36.395Z,2.50
2022-08-09T03:00:34.908Z,2.30
2022-08-09T03:01:43.258Z,2.60
2022-08-09T03:02:35.280Z,2.40
2022-08-09T03:03:37.130Z,2.50
2022-08-09T03:04:34.843Z,2.30
2022-08-09T03:05:35.024Z,2.60
2022-08-09T03:06:34.815Z,2.70
2022-08-09T03:07:34.815Z,2.40
2022-08-09T03:08:34.778Z,2.60
2022-08-09T03:09:34.771Z,2.70
2022-08-09T03:10:34.793Z,2.40
2022-08-09T03:12:05.341Z,2.90
2022-08-09T03:12:34.889Z,2.40
2022-08-09T03:13:43.660Z,2.60
2022-08-09T03:14:34.719Z,2.60
2022-08-09T03:16:04.616Z,2.60
2022-08-09T03:16:38.455Z,2.40
2022-08-09T03:17:34.702Z,2.50
2022-08-09T03:18:34.651Z,2.30
2022-08-09T03:19:58.054Z,2.50
2022-08-09T03:20:34.631Z,2.20
2022-08-09T03:21:39.483Z,2.30
2022-08-09T03:22:42.194Z,2.30
2022-08-09T03:23:34.611Z,2.60
2022-08-09T03:24:42.670Z,2.50
2022-08-09T03:25:59.185Z,2.30
2022-08-09T03:26:34.555Z,2.40
2022-08-09T03:27:44.997Z,2.50
2022-08-09T03:28:34.536Z,2.80
2022-08-09T03:29:35.763Z,2.80
2022-08-09T03:30:36.593Z,2.30
2022-08-09T03:31:34.481Z,2.10
2022-08-09T03:32:36.807Z,2.60
2022-08-09T03:33:54.572Z,2.40
2022-08-09T03:34:34.443Z,2.60
2022-08-09T03:35:44.294Z,2.70
2022-08-09T03:36:34.410Z,2.40
2022-08-09T03:37:55.815Z,2.80
2022-08-09T03:38:34.391Z,2.90
2022-08-09T03:39:38.031Z,2.50
2022-08-09T03:40:34.364Z,2.70
2022-08-09T03:41:48.403Z,2.50
2022-08-09T03:42:34.467Z,3.10
2022-08-09T03:43:34.316Z,2.60
2022-08-09T03:44:34.305Z,2.70
2022-08-09T03:46:05.283Z,2.60
2022-08-09T03:46:34.303Z,2.50
2022-08-09T03:47:39.825Z,3.00
2022-08-09T03:48:34.253Z,2.70
2022-08-09T03:49:35.823Z,2.70
2022-08-09T03:50:34.219Z,2.60
2022-08-09T03:51:56.249Z,2.60
2022-08-09T03:52:34.455Z,2.70
2022-08-09T03:53:37.051Z,2.50
2022-08-09T03:54:34.398Z,2.40
2022-08-09T03:55:36.147Z,2.80
2022-08-09T03:56:34.147Z,2.80
2022-08-09T03:57:34.137Z,2.80
2022-08-09T03:58:34.133Z,2.60
2022-08-09T03:59:52.827Z,2.70
2022-08-09T04:00:34.172Z,3.10
2022-08-09T04:01:34.076Z,2.90
2022-08-09T04:02:34.278Z,2.70
2022-08-09T04:03:45.990Z,3.00
2022-08-09T04:04:38.686Z,2.80
2022-08-09T04:05:34.015Z,2.80
2022-08-09T04:06:34.037Z,2.90
2022-08-09T04:07:52.374Z,2.80
2022-08-09T04:08:34.005Z,3.00
2022-08-09T04:09:48.187Z,2.60
2022-08-09T04:10:33.977Z,3.10
2022-08-09T04:11:33.947Z,2.70
2022-08-09T04:12:33.959Z,2.90
2022-08-09T04:14:36.552Z,2.90
2022-08-09T04:15:00.615Z,2.80
2022-08-09T04:16:18.234Z,2.90
2022-08-09T04:16:33.898Z,3.00
2022-08-09T04:17:33.864Z,3.30
2022-08-09T04:18:33.851Z,2.70
2022-08-09T04:19:50.896Z,2.90
2022-08-09T04:20:33.833Z,3.50
2022-08-09T04:21:36.359Z,2.80
2022-08-09T04:22:33.949Z,3.00
2022-08-09T04:23:33.780Z,3.40
2022-08-09T04:24:33.772Z,3.10
2022-08-09T04:25:33.763Z,2.90
2022-08-09T04:26:37.969Z,2.90
2022-08-09T04:27:33.733Z,2.80
2022-08-09T04:28:36.433Z,3.00
2022-08-09T04:29:33.729Z,3.10
2022-08-09T04:30:33.696Z,2.90
2022-08-09T04:31:37.387Z,3.10
2022-08-09T04:32:37.359Z,3.10
2022-08-09T04:33:33.671Z,3.40
2022-08-09T04:34:33.652Z,3.10
2022-08-09T04:35:33.625Z,3.30
2022-08-09T04:36:33.630Z,3.10
2022-08-09T04:37:45.747Z,3.10
2022-08-09T04:38:33.611Z,3.10
2022-08-09T04:39:33.645Z,2.90
2022-08-09T04:40:36.438Z,3.00
2022-08-09T04:41:43.446Z,3.30
2022-08-09T04:43:46.580Z,2.70
2022-08-09T04:44:49.123Z,2.90
2022-08-09T04:45:53.617Z,3.00
2022-08-09T04:46:57.422Z,3.00
2022-08-09T04:47:45.233Z,3.30
2022-08-09T04:48:57.746Z,3.10
2022-08-09T04:49:54.395Z,3.30
2022-08-09T04:50:42.917Z,3.40
2022-08-09T04:51:42.911Z,3.00
2022-08-09T04:52:42.894Z,3.00
2022-08-09T04:53:42.877Z,3.00
2022-08-09T04:54:42.889Z,3.10
2022-08-09T04:55:58.467Z,3.00
2022-08-09T04:56:42.847Z,3.20
2022-08-09T04:57:59.432Z,2.90
2022-08-09T04:58:42.821Z,2.70
2022-08-09T04:59:42.819Z,2.70
2022-08-09T05:00:43.082Z,2.90
2022-08-09T05:01:42.785Z,2.80
2022-08-09T05:02:42.766Z,2.70
2022-08-09T05:03:43.850Z,3.00
2022-08-09T05:04:42.732Z,2.90
2022-08-09T05:05:52.040Z,2.90
2022-08-09T05:06:44.138Z,3.10
2022-08-09T05:07:42.698Z,2.60
2022-08-09T05:08:43.792Z,3.20
2022-08-09T05:09:49.729Z,2.80
2022-08-09T05:10:42.673Z,3.00
2022-08-09T05:11:43.512Z,2.80
2022-08-09T05:12:42.640Z,2.60
2022-08-09T05:13:42.627Z,3.10
2022-08-09T05:14:42.612Z,2.90
2022-08-09T05:15:47.701Z,3.00
2022-08-09T05:16:43.665Z,3.10
2022-08-09T05:18:38.719Z,3.10
2022-08-09T05:18:58.443Z,3.00
2022-08-09T05:19:45.996Z,2.90
2022-08-09T05:20:42.531Z,2.90
2022-08-09T05:21:47.132Z,3.10
2022-08-09T05:23:53.657Z,3.20
2022-08-09T05:24:04.767Z,2.80
2022-08-09T05:24:42.461Z,3.40
2022-08-09T05:25:42.464Z,2.70
2022-08-09T05:26:45.970Z,2.80
2022-08-09T05:27:46.399Z,3.20
2022-08-09T05:28:42.412Z,2.80
2022-08-09T05:29:42.408Z,2.70
2022-08-09T05:30:42.383Z,3.20
2022-08-09T05:31:46.587Z,3.40
2022-08-09T05:32:42.381Z,5.70
2022-08-09T05:33:42.521Z,4.50
2022-08-09T05:34:42.898Z,4.00
2022-08-09T05:35:46.682Z,3.60
2022-08-09T05:36:42.591Z,3.50
2022-08-09T05:37:47.947Z,3.50
2022-08-09T05:38:42.291Z,4.20
2022-08-09T05:39:43.333Z,3.50
2022-08-09T05:40:42.279Z,3.10
2022-08-09T05:41:42.241Z,3.40
2022-08-09T05:42:42.237Z,3.80
2022-08-09T05:43:45.220Z,3.50
2022-08-09T05:44:42.209Z,3.30
2022-08-09T05:45:43.592Z,3.60
2022-08-09T05:46:42.174Z,3.60
2022-08-09T05:47:52.170Z,3.70
2022-08-09T05:48:42.181Z,3.30
2022-08-09T05:50:23.498Z,3.30
2022-08-09T05:50:57.085Z,3.30
2022-08-09T05:51:46.392Z,3.30
2022-08-09T05:52:42.333Z,3.50
2022-08-09T05:53:57.019Z,3.30
2022-08-09T05:54:42.089Z,2.90
2022-08-09T05:55:42.074Z,3.10
2022-08-09T05:56:55.358Z,2.90
2022-08-09T05:57:50.778Z,2.80
2022-08-09T05:58:42.031Z,3.00
2022-08-09T05:59:42.038Z,2.90
2022-08-09T06:00:42.036Z,2.90
2022-08-09T06:01:42.687Z,2.70
2022-08-09T06:02:46.439Z,2.50
2022-08-09T06:03:44.086Z,2.90
2022-08-09T06:04:44.576Z,2.90
2022-08-09T06:05:57.468Z,2.70
2022-08-09T06:06:49.651Z,2.60
2022-08-09T06:07:42.347Z,2.70
2022-08-09T06:08:42.320Z,2.80
2022-08-09T06:09:54.400Z,2.70
2022-08-09T06:10:41.874Z,2.80
2022-08-09T06:11:56.838Z,2.70
2022-08-09T06:12:41.852Z,2.60
2022-08-09T06:13:41.845Z,3.00
2022-08-09T06:14:41.816Z,2.70
2022-08-09T06:15:41.809Z,2.80
2022-08-09T06:16:41.793Z,2.60
2022-08-09T06:17:41.793Z,2.70
2022-08-09T06:18:41.779Z,2.70
2022-08-09T06:19:41.755Z,2.60
2022-08-09T06:20:41.759Z,2.80
2022-08-09T06:21:51.549Z,2.50
2022-08-09T06:22:41.722Z,2.90
2022-08-09T06:23:58.050Z,2.70
2022-08-09T06:24:41.759Z,2.30
2022-08-09T06:25:41.677Z,2.80
2022-08-09T06:26:41.668Z,2.50
2022-08-09T06:27:43.084Z,2.40
2022-08-09T06:28:43.303Z,2.40
2022-08-09T06:29:48.156Z,2.50
2022-08-09T06:30:43.377Z,2.50
2022-08-09T06:32:36.195Z,2.40
2022-08-09T06:33:30.358Z,2.20
2022-08-09T06:33:52.996Z,2.20
2022-08-09T06:34:41.558Z,2.30
2022-08-09T06:35:57.847Z,2.10
2022-08-09T06:36:43.895Z,2.20
2022-08-09T06:37:52.994Z,2.10
2022-08-09T06:38:47.322Z,2.10
2022-08-09T06:39:57.324Z,2.30
2022-08-09T06:40:41.561Z,2.20
2022-08-09T06:42:08.885Z,2.10
2022-08-09T06:42:45.084Z,2.20
2022-08-09T06:43:41.464Z,2.10
2022-08-09T06:44:41.649Z,2.10
2022-08-09T06:46:07.092Z,2.10
2022-08-09T06:46:41.407Z,2.20
2022-08-09T06:47:41.806Z,1.90
2022-08-09T06:48:42.858Z,2.00
2022-08-09T06:50:12.150Z,2.10
2022-08-09T06:50:41.347Z,2.00
2022-08-09T06:51:41.330Z,1.90
2022-08-09T06:52:41.319Z,2.00
2022-08-09T06:53:41.419Z,2.10
2022-08-09T06:54:41.720Z,2.30
2022-08-09T06:55:41.281Z,2.10
2022-08-09T06:56:45.634Z,2.10
2022-08-09T06:58:02.004Z,2.40
2022-08-09T07:00:49.454Z,2.10
2022-08-09T07:01:02.764Z,1.90
2022-08-09T07:01:08.958Z,1.80
2022-08-09T07:02:09.012Z,2.00
2022-08-09T07:03:08.957Z,1.90
2022-08-09T07:04:10.465Z,1.80
2022-08-09T07:05:08.903Z,2.30
2022-08-09T07:06:08.891Z,1.80
2022-08-09T07:07:12.015Z,1.80
2022-08-09T07:08:08.873Z,2.10
2022-08-09T07:09:53.770Z,2.10
2022-08-09T07:10:22.595Z,2.10
2022-08-09T07:11:12.719Z,2.10
2022-08-09T07:12:17.361Z,2.20
2022-08-09T07:13:27.466Z,1.90
2022-08-09T07:14:08.867Z,1.80
2022-08-09T07:16:36.090Z,1.90
2022-08-09T07:16:55.304Z,1.60
2022-08-09T07:17:08.741Z,1.90
2022-08-09T07:18:10.279Z,2.50
2022-08-09T07:19:08.722Z,1.80
2022-08-09T07:20:08.697Z,2.60
2022-08-09T07:21:08.684Z,3.00
2022-08-09T07:22:08.698Z,3.00
2022-08-09T07:23:18.834Z,2.50
2022-08-09T07:24:08.666Z,2.50
2022-08-09T07:25:09.768Z,3.50
2022-08-09T07:26:08.632Z,2.80
2022-08-09T07:27:11.108Z,2.00
2022-08-09T07:28:08.602Z,2.30
2022-08-09T07:29:13.536Z,1.90
2022-08-09T07:30:08.579Z,1.60
2022-08-09T07:31:08.577Z,1.40
2022-08-09T07:32:08.599Z,2.00
2022-08-09T07:33:12.243Z,7.10
2022-08-09T07:34:08.538Z,3.40
2022-08-09T07:35:11.296Z,2.30
2022-08-09T07:36:09.410Z,3.60
2022-08-09T07:37:15.541Z,4.40
2022-08-09T07:38:08.475Z,5.10
2022-08-09T07:39:11.579Z,3.40
2022-08-09T07:40:08.555Z,2.70
2022-08-09T07:41:10.875Z,4.10
2022-08-09T07:42:08.410Z,4.50
2022-08-09T07:43:16.513Z,8.20
2022-08-09T07:44:08.393Z,6.00
2022-08-09T07:45:22.860Z,2.50
2022-08-09T07:46:08.368Z,2.40
2022-08-09T07:47:08.352Z,2.20
2022-08-09T07:48:25.678Z,2.00
2022-08-09T07:49:08.400Z,2.40
2022-08-09T07:50:09.537Z,2.20
2022-08-09T07:52:02.508Z,2.10
2022-08-09T07:52:16.973Z,2.20
2022-08-09T07:53:08.281Z,2.50
2022-08-09T07:54:08.697Z,2.30
2022-08-09T07:55:09.425Z,2.20
2022-08-09T07:56:08.256Z,2.50
2022-08-09T07:57:11.690Z,1.90
2022-08-09T07:58:13.275Z,1.80
2022-08-09T07:59:12.569Z,1.50
2022-08-09T08:00:08.944Z,1.70
2022-08-09T08:01:11.130Z,1.40
2022-08-09T08:02:08.912Z,1.70
2022-08-09T08:03:08.674Z,1.50
2022-08-09T08:04:10.479Z,1.50
2022-08-09T08:05:11.554Z,1.80
2022-08-09T08:06:08.097Z,1.70
2022-08-09T08:07:14.820Z,1.40
2022-08-09T08:09:01.540Z,1.70
2022-08-09T08:09:34.491Z,1.30
2022-08-09T08:10:10.808Z,1.40
2022-08-09T08:12:23.870Z,1.60
2022-08-09T08:12:33.686Z,1.40
2022-08-09T08:13:10.301Z,1.40
2022-08-09T08:14:07.986Z,1.70
2022-08-09T08:15:07.981Z,1.40
2022-08-09T08:16:07.975Z,1.30
2022-08-09T08:17:08.926Z,1.40
2022-08-09T08:18:07.931Z,1.40
2022-08-09T08:19:07.923Z,1.30
2022-08-09T08:20:12.863Z,1.20
2022-08-09T08:21:07.914Z,1.40
2022-08-09T08:22:08.086Z,1.50
2022-08-09T08:23:16.777Z,1.30
2022-08-09T08:24:11.734Z,1.20
2022-08-09T08:25:13.681Z,1.30
2022-08-09T08:26:11.445Z,1.10
2022-08-09T08:27:16.803Z,1.20
2022-08-09T08:28:07.896Z,1.10
2022-08-09T08:29:07.796Z,1.20
2022-08-09T08:30:07.823Z,1.40
2022-08-09T08:31:14.142Z,1.50
2022-08-09T08:32:07.751Z,1.40
2022-08-09T08:33:07.737Z,1.10
2022-08-09T08:34:07.728Z,1.50
2022-08-09T08:35:07.710Z,1.40
2022-08-09T08:36:07.709Z,1.40
2022-08-09T08:37:07.683Z,1.30
2022-08-09T08:38:11.348Z,1.10
2022-08-09T08:39:10.391Z,1.70
2022-08-09T08:40:07.675Z,1.60
2022-08-09T08:41:07.630Z,1.40
2022-08-09T08:42:07.623Z,1.30
2022-08-09T08:43:13.118Z,1.40
2022-08-09T08:44:07.619Z,1.30
2022-08-09T08:45:13.454Z,1.40
2022-08-09T08:46:31.640Z,1.40
2022-08-09T08:47:13.059Z,1.00
2022-08-09T08:48:10.112Z,1.30
2022-08-09T08:49:07.529Z,1.70
2022-08-09T08:50:07.523Z,1.40
2022-08-09T08:51:07.582Z,1.30
2022-08-09T08:52:10.257Z,1.30
2022-08-09T08:53:12.012Z,1.10
2022-08-09T08:54:07.468Z,1.30
2022-08-09T08:55:07.644Z,1.20
2022-08-09T08:56:07.432Z,1.20
2022-08-09T08:57:11.474Z,2.20
2022-08-09T08:58:07.406Z,1.50
2022-08-09T08:59:07.907Z,1.50
2022-08-09T09:00:12.769Z,1.40
2022-08-09T09:01:08.894Z,1.60
2022-08-09T09:02:07.426Z,1.80
2022-08-09T09:03:11.294Z,1.50
2022-08-09T09:04:07.342Z,1.60
2022-08-09T09:05:09.907Z,1.40
2022-08-09T09:06:07.339Z,1.30
2022-08-09T09:07:07.850Z,1.60
2022-08-09T09:08:07.272Z,1.60
2022-08-09T09:09:21.173Z,1.50
2022-08-09T09:10:09.003Z,1.30
2022-08-09T09:11:07.253Z,1.40
2022-08-09T09:12:12.051Z,1.40
2022-08-09T09:13:09.354Z,1.30
2022-08-09T09:14:07.192Z,1.50
2022-08-09T09:15:07.192Z,1.30
2022-08-09T09:16:07.172Z,1.80
2022-08-09T09:17:07.159Z,1.50
2022-08-09T09:18:07.151Z,1.40
2022-08-09T09:19:40.388Z,1.30
2022-08-09T09:20:07.122Z,1.20
2022-08-09T09:21:07.119Z,1.20
2022-08-09T09:22:07.782Z,1.30
2022-08-09T09:23:07.080Z,1.20
2022-08-09T09:24:10.583Z,1.00
2022-08-09T09:26:03.468Z,1.20
2022-08-09T09:26:16.209Z,1.00
2022-08-09T09:27:07.034Z,1.20
2022-08-09T09:28:08.040Z,1.30
2022-08-09T09:29:11.328Z,1.40
2022-08-09T09:30:13.935Z,1.20
2022-08-09T09:31:06.987Z,1.10
2022-08-09T09:32:15.549Z,1.10
2022-08-09T09:33:15.990Z,1.00
2022-08-09T09:34:06.938Z,1.10
2022-08-09T09:35:08.981Z,1.00
2022-08-09T09:36:20.676Z,1.10
2022-08-09T09:37:06.903Z,1.20
2022-08-09T09:38:06.890Z,1.20
2022-08-09T09:39:06.915Z,1.30
2022-08-09T09:40:06.925Z,1.30
2022-08-09T09:41:06.844Z,1.10
2022-08-09T09:42:11.844Z,1.10
2022-08-09T09:43:06.824Z,1.20
2022-08-09T09:44:11.470Z,1.10
2022-08-09T09:45:06.817Z,1.10
2022-08-09T09:47:06.768Z,1.00
2022-08-09T09:48:06.749Z,1.10
2022-08-09T09:49:06.739Z,1.00
2022-08-09T09:50:15.075Z,1.90
2022-08-09T09:51:07.089Z,1.80
2022-08-09T09:52:06.694Z,3.30
2022-08-09T09:53:10.570Z,1.70
2022-08-09T09:54:17.083Z,5.20
2022-08-09T09:55:23.961Z,2.80
2022-08-09T09:56:06.667Z,2.30
2022-08-09T09:58:03.081Z,2.30
2022-08-09T09:58:22.114Z,1.50
2022-08-09T09:59:06.678Z,1.60
2022-08-09T10:00:06.591Z,1.40
2022-08-09T10:01:06.592Z,2.20
2022-08-09T10:02:06.572Z,2.10
2022-08-09T10:03:11.522Z,2.80
2022-08-09T10:04:09.476Z,5.90
2022-08-09T10:05:06.791Z,3.60
2022-08-09T10:06:06.525Z,2.70
2022-08-09T10:07:09.937Z,1.80
2022-08-09T10:08:27.180Z,1.50
2022-08-09T10:09:21.582Z,1.50
2022-08-09T10:10:06.480Z,1.60
2022-08-09T10:11:30.877Z,1.60
2022-08-09T10:12:14.315Z,1.50
2022-08-09T10:13:06.434Z,1.60
2022-08-09T10:14:07.066Z,1.60
2022-08-09T10:15:06.399Z,1.30
2022-08-09T10:16:55.690Z,1.20
2022-08-09T10:17:24.044Z,1.10
2022-08-09T10:18:06.373Z,1.10
2022-08-09T10:19:06.353Z,1.50
2022-08-09T10:20:06.335Z,1.50
2022-08-09T10:21:06.339Z,1.60
2022-08-09T10:22:06.310Z,1.30
2022-08-09T10:23:06.304Z,1.70
2022-08-09T10:24:06.286Z,1.30
2022-08-09T10:25:11.120Z,1.30
2022-08-09T10:26:11.037Z,1.80
2022-08-09T10:27:10.297Z,2.30
2022-08-09T10:28:06.247Z,1.30
2022-08-09T10:29:21.278Z,1.60
2022-08-09T10:32:21.253Z,1.50
2022-08-09T10:32:43.151Z,1.20
2022-08-09T10:33:08.050Z,1.30
2022-08-09T10:34:10.987Z,1.10
2022-08-09T10:35:06.155Z,1.00
2022-08-09T10:36:09.666Z,1.30
2022-08-09T10:37:09.600Z,1.40
2022-08-09T10:38:06.106Z,1.20
2022-08-09T10:39:15.723Z,1.20
2022-08-09T10:40:06.143Z,1.30
2022-08-09T10:41:06.171Z,1.20
2022-08-09T10:42:06.063Z,1.30
2022-08-09T10:43:08.220Z,1.30
2022-08-09T10:44:58.019Z,0.80
2022-08-09T10:46:00.266Z,1.20
2022-08-09T10:47:01.389Z,1.10
2022-08-09T10:48:18.028Z,1.50
2022-08-09T10:48:58.996Z,1.30
2022-08-09T10:49:58.957Z,1.00
2022-08-09T10:50:58.982Z,1.00
2022-08-09T10:51:58.944Z,1.20
2022-08-09T10:53:00.027Z,1.00
2022-08-09T10:53:58.909Z,1.10
2022-08-09T10:54:58.921Z,1.00
2022-08-09T10:56:00.366Z,1.30
2022-08-09T10:56:58.888Z,1.20
2022-08-09T10:58:00.223Z,1.40
2022-08-09T10:58:58.850Z,1.30
2022-08-09T11:00:01.904Z,1.10
2022-08-09T11:03:06.707Z,1.40
2022-08-09T11:03:49.784Z,1.10
2022-08-09T11:03:59.887Z,1.40
2022-08-09T11:04:55.530Z,1.20
2022-08-09T11:06:00.089Z,1.30
2022-08-09T11:06:44.808Z,1.30
2022-08-09T11:07:58.529Z,1.40
2022-08-09T11:08:47.113Z,1.20
2022-08-09T11:09:47.929Z,1.20
2022-08-09T11:10:53.233Z,1.80
2022-08-09T11:11:43.608Z,1.50
2022-08-09T11:12:41.348Z,1.40
2022-08-09T11:13:53.833Z,1.00
2022-08-09T11:14:41.312Z,1.30
2022-08-09T11:16:04.449Z,1.20
2022-08-09T11:16:41.586Z,1.20
2022-08-09T11:17:42.074Z,1.60
2022-08-09T11:18:41.254Z,1.20
2022-08-09T11:20:11.182Z,1.20
2022-08-09T11:20:41.253Z,1.60
2022-08-09T11:21:41.393Z,1.20
2022-08-09T11:22:41.581Z,1.20
2022-08-09T11:23:41.195Z,1.20
2022-08-09T11:24:41.184Z,1.20
2022-08-09T11:25:47.924Z,1.20
2022-08-09T11:26:47.337Z,1.20
2022-08-09T11:28:04.929Z,1.20
2022-08-09T11:28:56.010Z,1.20
2022-08-09T11:30:06.413Z,1.00
2022-08-09T11:30:47.765Z,1.10
2022-08-09T11:31:43.264Z,1.10
2022-08-09T11:32:41.137Z,1.10
2022-08-09T11:33:41.075Z,1.10
2022-08-09T11:34:41.067Z,1.10
2022-08-09T11:35:50.189Z,1.10
2022-08-09T11:36:41.081Z,1.30
2022-08-09T11:37:43.115Z,1.20
2022-08-09T11:38:41.456Z,1.10
2022-08-09T11:39:41.041Z,1.10
2022-08-09T11:40:40.979Z,1.10
2022-08-09T11:41:40.997Z,1.00
2022-08-09T11:42:40.947Z,1.10
2022-08-09T11:43:40.945Z,1.10
2022-08-09T11:44:40.922Z,1.00
2022-08-09T11:45:43.159Z,1.00
2022-08-09T11:46:40.904Z,1.10
2022-08-09T11:47:40.879Z,0.90
2022-08-09T11:48:40.876Z,1.00
2022-08-09T11:49:42.944Z,1.10
2022-08-09T11:52:06.801Z,1.20
2022-08-09T11:53:21.332Z,1.20
2022-08-09T11:54:12.965Z,1.10
2022-08-09T11:54:28.881Z,1.20
2022-08-09T11:55:18.241Z,1.10
2022-08-09T11:56:19.518Z,1.10
2022-08-09T11:57:18.176Z,1.10
2022-08-09T11:58:18.180Z,1.10
2022-08-09T11:59:18.158Z,1.30
2022-08-09T12:00:22.842Z,1.40
2022-08-09T12:02:18.262Z,1.10
2022-08-09T12:02:40.815Z,1.00
2022-08-09T12:03:56.312Z,0.90
2022-08-09T12:04:23.661Z,1.10
2022-08-09T12:05:18.118Z,0.90
2022-08-09T12:06:18.058Z,0.90
2022-08-09T12:07:18.058Z,1.00
2022-08-09T12:08:19.861Z,1.00
2022-08-09T12:09:21.158Z,1.00
2022-08-09T12:10:39.395Z,1.00
2022-08-09T12:11:17.997Z,1.20
2022-08-09T12:12:19.990Z,1.10
2022-08-09T12:14:09.478Z,0.80
2022-08-09T12:14:37.197Z,0.90
2022-08-09T12:15:17.939Z,1.00
2022-08-09T12:16:30.766Z,1.10
2022-08-09T12:17:27.877Z,1.00
2022-08-09T12:18:17.910Z,0.80
2022-08-09T12:19:17.899Z,0.70
2022-08-09T12:20:21.492Z,1.10
2022-08-09T12:21:28.647Z,1.10
2022-08-09T12:22:17.841Z,1.00
2022-08-09T12:23:17.830Z,0.90
2022-08-09T12:24:17.860Z,0.90
2022-08-09T12:25:17.801Z,0.90
2022-08-09T12:26:25.418Z,1.00
2022-08-09T12:29:12.461Z,0.90
2022-08-09T12:29:33.375Z,1.00
2022-08-09T12:30:01.821Z,0.90
2022-08-09T12:30:39.338Z,0.90
2022-08-09T12:31:59.313Z,0.80
2022-08-09T12:32:40.648Z,0.90
2022-08-09T12:33:59.054Z,0.90
2022-08-09T12:34:37.821Z,0.80
2022-08-09T12:35:40.724Z,1.00
2022-08-09T12:36:37.736Z,0.70
2022-08-09T12:37:50.366Z,1.00
2022-08-09T12:38:38.714Z,0.80
2022-08-09T12:39:38.046Z,0.90
2022-08-09T12:40:37.671Z,0.80
2022-08-09T12:41:40.212Z,0.90
2022-08-09T12:42:37.644Z,1.00
2022-08-09T12:44:06.661Z,0.80
2022-08-09T12:44:37.654Z,1.10
2022-08-09T12:45:38.813Z,1.00
2022-08-09T12:46:37.605Z,0.80
2022-08-09T12:47:44.265Z,0.70
2022-08-09T12:48:38.470Z,0.90
2022-08-09T12:49:37.550Z,1.30
2022-08-09T12:50:37.533Z,1.00
2022-08-09T12:52:00.963Z,0.90
2022-08-09T12:52:58.556Z,1.00
2022-08-09T12:53:38.784Z,0.90
2022-08-09T12:54:37.483Z,0.90
2022-08-09T12:56:14.664Z,1.00
2022-08-09T12:56:43.849Z,0.90
2022-08-09T12:57:39.321Z,0.70
2022-08-09T12:58:42.900Z,1.10
2022-08-09T12:59:57.638Z,1.00
2022-08-09T13:00:37.414Z,0.80
2022-08-09T13:01:38.023Z,1.00
2022-08-09T13:02:37.377Z,0.80
2022-08-09T13:03:53.899Z,1.00
2022-08-09T13:04:38.834Z,1.10
2022-08-09T13:05:51.730Z,1.10
2022-08-09T13:06:37.332Z,0.90
2022-08-09T13:07:50.136Z,0.80
2022-08-09T13:08:39.981Z,0.90
2022-08-09T13:09:38.227Z,0.80
2022-08-09T13:10:37.270Z,0.90
2022-08-09T13:11:39.585Z,0.90
2022-08-09T13:12:39.980Z,0.70
2022-08-09T13:14:01.022Z,0.80
2022-08-09T13:14:51.518Z,0.70
2022-08-09T13:15:37.225Z,0.70
2022-08-09T13:16:37.202Z,1.10
2022-08-09T13:18:02.530Z,0.80
2022-08-09T13:18:37.180Z,0.90
2022-08-09T13:20:08.802Z,0.90
2022-08-09T13:20:50.199Z,0.80
2022-08-09T13:23:01.071Z,1.00
2022-08-09T13:24:16.029Z,1.10
2022-08-09T13:24:53.670Z,1.10
2022-08-09T13:24:59.737Z,0.70
2022-08-09T13:25:55.015Z,0.70